sensor_id;sensor_type;location;lat;lon;timestamp;temperature;humidity
45489;DHT22;31236;55.026;61.042;2022-08-19T00:02:11;10.60;80.80
45489;DHT22;31236;55.026;61.042;2022-08-19T00:04:42;10.60;81.00
45489;DHT22;31236;55.026;61.042;2022-08-19T00:07:13;10.50;81.00
45489;DHT22;31236;55.026;61.042;2022-08-19T00:09:44;10.50;81.10
45489;DHT22;31236;55.026;61.042;2022-08-19T00:12:14;10.50;81.30
45489;DHT22;31236;55.026;61.042;2022-08-19T00:14:44;10.50;81.30
45489;DHT22;31236;55.026;61.042;2022-08-19T00:17:15;10.50;81.50
45489;DHT22;31236;55.026;61.042;2022-08-19T00:19:45;10.50;81.50
45489;DHT22;31236;55.026;61.042;2022-08-19T00:22:15;10.50;81.50
45489;DHT22;31236;55.026;61.042;2022-08-19T00:24:46;10.50;81.60
45489;DHT22;31236;55.026;61.042;2022-08-19T00:27:16;10.50;81.60
45489;DHT22;31236;55.026;61.042;2022-08-19T00:29:46;10.60;81.60
45489;DHT22;31236;55.026;61.042;2022-08-19T00:32:16;10.50;81.60
45489;DHT22;31236;55.026;61.042;2022-08-19T00:34:47;10.50;81.70
45489;DHT22;31236;55.026;61.042;2022-08-19T00:37:18;10.50;81.80
45489;DHT22;31236;55.026;61.042;2022-08-19T00:39:50;10.50;81.80
45489;DHT22;31236;55.026;61.042;2022-08-19T00:42:21;10.50;81.70
45489;DHT22;31236;55.026;61.042;2022-08-19T00:44:52;10.50;81.90
45489;DHT22;31236;55.026;61.042;2022-08-19T00:47:22;10.40;81.70
45489;DHT22;31236;55.026;61.042;2022-08-19T00:49:55;10.50;81.60
45489;DHT22;31236;55.026;61.042;2022-08-19T00:52:46;10.50;82.00
45489;DHT22;31236;55.026;61.042;2022-08-19T00:55:36;10.50;82.00
45489;DHT22;31236;55.026;61.042;2022-08-19T00:58:10;10.50;81.80
45489;DHT22;31236;55.026;61.042;2022-08-19T01:00:40;10.50;81.80
45489;DHT22;31236;55.026;61.042;2022-08-19T01:03:13;10.50;82.10
45489;DHT22;31236;55.026;61.042;2022-08-19T01:05:44;10.50;82.40
45489;DHT22;31236;55.026;61.042;2022-08-19T01:08:16;10.50;82.40
45489;DHT22;31236;55.026;61.042;2022-08-19T01:11:06;10.50;82.50
45489;DHT22;31236;55.026;61.042;2022-08-19T01:13:37;10.50;83.10
45489;DHT22;31236;55.026;61.042;2022-08-19T01:16:27;10.40;82.40
45489;DHT22;31236;55.026;61.042;2022-08-19T01:18:58;10.40;82.70
45489;DHT22;31236;55.026;61.042;2022-08-19T01:24:20;10.30;83.10
45489;DHT22;31236;55.026;61.042;2022-08-19T01:26:50;10.30;83.10
45489;DHT22;31236;55.026;61.042;2022-08-19T01:29:21;10.30;83.20
45489;DHT22;31236;55.026;61.042;2022-08-19T01:31:51;10.30;83.40
45489;DHT22;31236;55.026;61.042;2022-08-19T01:34:21;10.30;83.50
45489;DHT22;31236;55.026;61.042;2022-08-19T01:36:52;10.30;83.50
45489;DHT22;31236;55.026;61.042;2022-08-19T01:39:23;10.30;83.50
45489;DHT22;31236;55.026;61.042;2022-08-19T01:41:53;10.40;83.50
45489;DHT22;31236;55.026;61.042;2022-08-19T01:44:23;10.40;83.50
45489;DHT22;31236;55.026;61.042;2022-08-19T01:46:53;10.40;83.50
45489;DHT22;31236;55.026;61.042;2022-08-19T01:49:24;10.40;83.60
45489;DHT22;31236;55.026;61.042;2022-08-19T01:51:55;10.30;83.60
45489;DHT22;31236;55.026;61.042;2022-08-19T01:54:25;10.30;83.70
45489;DHT22;31236;55.026;61.042;2022-08-19T01:59:47;10.40;83.80
45489;DHT22;31236;55.026;61.042;2022-08-19T02:02:18;10.40;83.60
45489;DHT22;31236;55.026;61.042;2022-08-19T02:04:48;10.40;83.70
45489;DHT22;31236;55.026;61.042;2022-08-19T02:07:20;10.40;83.50
45489;DHT22;31236;55.026;61.042;2022-08-19T02:09:50;10.50;83.40
45489;DHT22;31236;55.026;61.042;2022-08-19T02:12:20;10.50;83.20
45489;DHT22;31236;55.026;61.042;2022-08-19T02:14:50;10.50;83.30
45489;DHT22;31236;55.026;61.042;2022-08-19T02:17:21;10.50;83.00
45489;DHT22;31236;55.026;61.042;2022-08-19T02:19:51;10.50;82.80
45489;DHT22;31236;55.026;61.042;2022-08-19T02:22:21;10.60;82.90
45489;DHT22;31236;55.026;61.042;2022-08-19T02:24:53;10.60;82.90
45489;DHT22;31236;55.026;61.042;2022-08-19T02:27:24;10.70;82.80
45489;DHT22;31236;55.026;61.042;2022-08-19T02:29:54;10.70;82.60
45489;DHT22;31236;55.026;61.042;2022-08-19T02:32:24;10.80;82.60
45489;DHT22;31236;55.026;61.042;2022-08-19T02:34:55;10.80;82.30
45489;DHT22;31236;55.026;61.042;2022-08-19T02:37:25;10.80;82.30
45489;DHT22;31236;55.026;61.042;2022-08-19T02:40:14;10.80;82.60
45489;DHT22;31236;55.026;61.042;2022-08-19T02:42:45;10.80;82.10
45489;DHT22;31236;55.026;61.042;2022-08-19T02:45:15;10.80;82.10
45489;DHT22;31236;55.026;61.042;2022-08-19T02:47:46;10.80;82.10
45489;DHT22;31236;55.026;61.042;2022-08-19T02:50:16;10.80;81.70
45489;DHT22;31236;55.026;61.042;2022-08-19T02:52:46;10.90;81.80
45489;DHT22;31236;55.026;61.042;2022-08-19T02:55:16;10.90;81.70
45489;DHT22;31236;55.026;61.042;2022-08-19T02:57:46;11.00;81.70
45489;DHT22;31236;55.026;61.042;2022-08-19T03:00:17;10.90;81.40
45489;DHT22;31236;55.026;61.042;2022-08-19T03:02:47;10.90;81.30
45489;DHT22;31236;55.026;61.042;2022-08-19T03:05:18;10.90;81.30
45489;DHT22;31236;55.026;61.042;2022-08-19T03:07:48;11.00;81.70
45489;DHT22;31236;55.026;61.042;2022-08-19T03:10:18;11.00;81.90
45489;DHT22;31236;55.026;61.042;2022-08-19T03:12:49;11.10;81.80
45489;DHT22;31236;55.026;61.042;2022-08-19T03:15:19;11.20;81.40
45489;DHT22;31236;55.026;61.042;2022-08-19T03:17:49;11.30;81.50
45489;DHT22;31236;55.026;61.042;2022-08-19T03:20:20;11.30;81.10
45489;DHT22;31236;55.026;61.042;2022-08-19T03:22:49;11.40;80.90
45489;DHT22;31236;55.026;61.042;2022-08-19T03:25:20;11.50;80.90
45489;DHT22;31236;55.026;61.042;2022-08-19T03:27:50;11.50;80.80
45489;DHT22;31236;55.026;61.042;2022-08-19T03:30:20;11.60;80.30
45489;DHT22;31236;55.026;61.042;2022-08-19T03:32:50;11.60;79.80
45489;DHT22;31236;55.026;61.042;2022-08-19T03:35:20;11.60;80.10
45489;DHT22;31236;55.026;61.042;2022-08-19T03:37:50;11.60;80.20
45489;DHT22;31236;55.026;61.042;2022-08-19T03:40:21;11.60;80.00
45489;DHT22;31236;55.026;61.042;2022-08-19T03:42:51;11.50;80.00
45489;DHT22;31236;55.026;61.042;2022-08-19T03:45:21;11.50;80.00
45489;DHT22;31236;55.026;61.042;2022-08-19T03:47:51;11.50;79.40
45489;DHT22;31236;55.026;61.042;2022-08-19T03:50:22;11.60;79.30
45489;DHT22;31236;55.026;61.042;2022-08-19T03:52:52;11.60;79.10
45489;DHT22;31236;55.026;61.042;2022-08-19T03:55:22;11.60;78.60
45489;DHT22;31236;55.026;61.042;2022-08-19T03:57:53;11.60;78.60
45489;DHT22;31236;55.026;61.042;2022-08-19T04:00:23;11.60;78.70
45489;DHT22;31236;55.026;61.042;2022-08-19T04:02:53;11.60;78.40
45489;DHT22;31236;55.026;61.042;2022-08-19T04:05:24;11.70;78.30
45489;DHT22;31236;55.026;61.042;2022-08-19T04:07:55;11.70;78.20
45489;DHT22;31236;55.026;61.042;2022-08-19T04:10:26;11.70;78.20
45489;DHT22;31236;55.026;61.042;2022-08-19T04:12:56;11.80;78.20
45489;DHT22;31236;55.026;61.042;2022-08-19T04:15:27;11.80;78.50
45489;DHT22;31236;55.026;61.042;2022-08-19T04:17:58;11.80;78.40
45489;DHT22;31236;55.026;61.042;2022-08-19T04:20:29;11.80;78.50
45489;DHT22;31236;55.026;61.042;2022-08-19T04:22:59;11.80;78.50
45489;DHT22;31236;55.026;61.042;2022-08-19T04:25:35;11.80;78.50
45489;DHT22;31236;55.026;61.042;2022-08-19T04:28:03;11.90;78.10
45489;DHT22;31236;55.026;61.042;2022-08-19T04:33:25;12.00;78.30
45489;DHT22;31236;55.026;61.042;2022-08-19T04:35:56;11.90;77.70
45489;DHT22;31236;55.026;61.042;2022-08-19T04:38:27;11.90;78.20
45489;DHT22;31236;55.026;61.042;2022-08-19T04:40:57;11.90;78.40
45489;DHT22;31236;55.026;61.042;2022-08-19T04:43:47;12.00;78.00
45489;DHT22;31236;55.026;61.042;2022-08-19T04:46:18;12.00;77.40
45489;DHT22;31236;55.026;61.042;2022-08-19T04:48:48;12.00;77.10
45489;DHT22;31236;55.026;61.042;2022-08-19T04:51:19;12.10;76.80
45489;DHT22;31236;55.026;61.042;2022-08-19T04:53:49;12.20;77.00
45489;DHT22;31236;55.026;61.042;2022-08-19T04:56:20;12.30;76.40
45489;DHT22;31236;55.026;61.042;2022-08-19T04:58:54;12.30;75.60
45489;DHT22;31236;55.026;61.042;2022-08-19T05:01:26;12.30;75.40
45489;DHT22;31236;55.026;61.042;2022-08-19T05:03:57;12.30;75.40
45489;DHT22;31236;55.026;61.042;2022-08-19T05:06:28;12.30;75.10
45489;DHT22;31236;55.026;61.042;2022-08-19T05:08:59;12.30;75.20
45489;DHT22;31236;55.026;61.042;2022-08-19T05:11:32;12.20;75.30
45489;DHT22;31236;55.026;61.042;2022-08-19T05:14:04;12.20;75.20
45489;DHT22;31236;55.026;61.042;2022-08-19T05:16:34;12.20;74.90
45489;DHT22;31236;55.026;61.042;2022-08-19T05:19:04;12.20;74.60
45489;DHT22;31236;55.026;61.042;2022-08-19T05:21:54;12.20;75.00
45489;DHT22;31236;55.026;61.042;2022-08-19T05:24:44;12.20;75.40
45489;DHT22;31236;55.026;61.042;2022-08-19T05:27:14;12.20;74.90
45489;DHT22;31236;55.026;61.042;2022-08-19T05:29:44;12.10;75.40
45489;DHT22;31236;55.026;61.042;2022-08-19T05:32:15;12.10;75.30
45489;DHT22;31236;55.026;61.042;2022-08-19T05:34:45;12.10;75.40
45489;DHT22;31236;55.026;61.042;2022-08-19T05:37:15;12.10;76.20
45489;DHT22;31236;55.026;61.042;2022-08-19T05:39:46;12.20;75.80
45489;DHT22;31236;55.026;61.042;2022-08-19T05:42:16;12.20;75.40
45489;DHT22;31236;55.026;61.042;2022-08-19T05:44:47;12.10;75.20
45489;DHT22;31236;55.026;61.042;2022-08-19T05:47:18;12.10;74.90
45489;DHT22;31236;55.026;61.042;2022-08-19T05:49:49;12.20;75.10
45489;DHT22;31236;55.026;61.042;2022-08-19T05:52:19;12.30;75.20
45489;DHT22;31236;55.026;61.042;2022-08-19T05:54:49;12.30;74.90
45489;DHT22;31236;55.026;61.042;2022-08-19T05:57:21;12.30;75.00
45489;DHT22;31236;55.026;61.042;2022-08-19T05:59:52;12.30;74.30
45489;DHT22;31236;55.026;61.042;2022-08-19T06:02:55;12.30;74.40
45489;DHT22;31236;55.026;61.042;2022-08-19T06:04:58;12.30;74.00
45489;DHT22;31236;55.026;61.042;2022-08-19T06:07:29;12.30;73.90
45489;DHT22;31236;55.026;61.042;2022-08-19T06:10:00;12.30;74.30
45489;DHT22;31236;55.026;61.042;2022-08-19T06:12:32;12.30;73.70
45489;DHT22;31236;55.026;61.042;2022-08-19T06:15:34;12.40;73.60
45489;DHT22;31236;55.026;61.042;2022-08-19T06:17:36;12.50;74.30
45489;DHT22;31236;55.026;61.042;2022-08-19T06:20:26;12.50;73.50
45489;DHT22;31236;55.026;61.042;2022-08-19T06:22:56;12.50;72.50
45489;DHT22;31236;55.026;61.042;2022-08-19T06:25:27;12.40;72.50
45489;DHT22;31236;55.026;61.042;2022-08-19T06:27:57;12.50;72.50
45489;DHT22;31236;55.026;61.042;2022-08-19T06:30:27;12.50;72.50
45489;DHT22;31236;55.026;61.042;2022-08-19T06:32:58;12.60;72.40
45489;DHT22;31236;55.026;61.042;2022-08-19T06:35:29;12.60;72.40
45489;DHT22;31236;55.026;61.042;2022-08-19T06:37:59;12.70;71.80
45489;DHT22;31236;55.026;61.042;2022-08-19T06:40:30;12.80;71.60
45489;DHT22;31236;55.026;61.042;2022-08-19T06:43:01;12.80;71.00
45489;DHT22;31236;55.026;61.042;2022-08-19T06:45:32;12.90;71.00
45489;DHT22;31236;55.026;61.042;2022-08-19T06:48:03;12.90;70.70
45489;DHT22;31236;55.026;61.042;2022-08-19T06:50:34;12.90;71.20
45489;DHT22;31236;55.026;61.042;2022-08-19T06:53:05;12.90;71.90
45489;DHT22;31236;55.026;61.042;2022-08-19T06:55:35;13.00;72.20
45489;DHT22;31236;55.026;61.042;2022-08-19T06:58:06;13.00;71.30
45489;DHT22;31236;55.026;61.042;2022-08-19T07:00:37;12.90;71.20
45489;DHT22;31236;55.026;61.042;2022-08-19T07:03:08;13.00;71.70
45489;DHT22;31236;55.026;61.042;2022-08-19T07:05:58;13.00;72.60
45489;DHT22;31236;55.026;61.042;2022-08-19T07:08:29;13.00;71.80
45489;DHT22;31236;55.026;61.042;2022-08-19T07:10:59;13.00;71.50
45489;DHT22;31236;55.026;61.042;2022-08-19T07:13:29;13.10;71.70
45489;DHT22;31236;55.026;61.042;2022-08-19T07:18:52;13.20;71.30
45489;DHT22;31236;55.026;61.042;2022-08-19T07:21:25;13.30;70.50
45489;DHT22;31236;55.026;61.042;2022-08-19T07:23:56;13.10;70.30
45489;DHT22;31236;55.026;61.042;2022-08-19T07:26:31;13.10;70.50
45489;DHT22;31236;55.026;61.042;2022-08-19T07:29:01;13.10;70.80
45489;DHT22;31236;55.026;61.042;2022-08-19T07:31:32;13.20;71.20
45489;DHT22;31236;55.026;61.042;2022-08-19T07:34:05;13.30;70.60
45489;DHT22;31236;55.026;61.042;2022-08-19T07:36:38;13.30;69.70
45489;DHT22;31236;55.026;61.042;2022-08-19T07:39:12;13.30;70.40
45489;DHT22;31236;55.026;61.042;2022-08-19T07:41:42;13.40;69.00
45489;DHT22;31236;55.026;61.042;2022-08-19T07:44:13;13.40;68.80
45489;DHT22;31236;55.026;61.042;2022-08-19T07:46:45;13.50;69.30
45489;DHT22;31236;55.026;61.042;2022-08-19T07:49:17;13.60;68.70
45489;DHT22;31236;55.026;61.042;2022-08-19T07:51:52;13.60;68.50
45489;DHT22;31236;55.026;61.042;2022-08-19T07:54:22;13.60;68.20
45489;DHT22;31236;55.026;61.042;2022-08-19T07:56:54;13.60;69.00
45489;DHT22;31236;55.026;61.042;2022-08-19T07:59:27;13.60;68.50
45489;DHT22;31236;55.026;61.042;2022-08-19T08:01:58;13.50;67.90
45489;DHT22;31236;55.026;61.042;2022-08-19T08:04:28;13.50;67.80
45489;DHT22;31236;55.026;61.042;2022-08-19T08:07:18;13.50;68.00
45489;DHT22;31236;55.026;61.042;2022-08-19T08:10:08;13.60;68.30
45489;DHT22;31236;55.026;61.042;2022-08-19T08:12:40;13.70;68.90
45489;DHT22;31236;55.026;61.042;2022-08-19T08:15:12;13.70;68.70
45489;DHT22;31236;55.026;61.042;2022-08-19T08:18:02;13.80;68.40
45489;DHT22;31236;55.026;61.042;2022-08-19T08:20:33;13.80;67.90
45489;DHT22;31236;55.026;61.042;2022-08-19T08:23:03;13.90;67.50
45489;DHT22;31236;55.026;61.042;2022-08-19T08:25:56;14.00;66.90
45489;DHT22;31236;55.026;61.042;2022-08-19T08:28:26;14.10;66.40
45489;DHT22;31236;55.026;61.042;2022-08-19T08:30:57;14.20;66.60
45489;DHT22;31236;55.026;61.042;2022-08-19T08:33:28;14.40;65.20
45489;DHT22;31236;55.026;61.042;2022-08-19T08:35:59;14.40;65.10
45489;DHT22;31236;55.026;61.042;2022-08-19T08:38:29;14.40;65.40
45489;DHT22;31236;55.026;61.042;2022-08-19T08:41:01;14.40;66.90
45489;DHT22;31236;55.026;61.042;2022-08-19T08:43:35;14.60;66.40
45489;DHT22;31236;55.026;61.042;2022-08-19T08:52:45;14.80;64.40
45489;DHT22;31236;55.026;61.042;2022-08-19T08:55:37;14.70;64.70
45489;DHT22;31236;55.026;61.042;2022-08-19T09:00:58;14.80;63.60
45489;DHT22;31236;55.026;61.042;2022-08-19T09:03:29;15.00;63.50
45489;DHT22;31236;55.026;61.042;2022-08-19T09:15:11;15.80;63.80
45489;DHT22;31236;55.026;61.042;2022-08-19T09:17:41;15.90;60.90
45489;DHT22;31236;55.026;61.042;2022-08-19T09:23:03;15.70;59.90
45489;DHT22;31236;55.026;61.042;2022-08-19T09:25:33;15.70;61.20
45489;DHT22;31236;55.026;61.042;2022-08-19T09:28:03;15.90;61.90
45489;DHT22;31236;55.026;61.042;2022-08-19T09:30:53;16.10;61.30
45489;DHT22;31236;55.026;61.042;2022-08-19T09:33:23;16.30;60.40
45489;DHT22;31236;55.026;61.042;2022-08-19T09:38:45;16.40;58.80
45489;DHT22;31236;55.026;61.042;2022-08-19T09:41:18;16.40;59.40
45489;DHT22;31236;55.026;61.042;2022-08-19T09:43:50;16.50;58.90
45489;DHT22;31236;55.026;61.042;2022-08-19T09:46:24;16.60;58.60
45489;DHT22;31236;55.026;61.042;2022-08-19T09:48:56;16.60;57.90
45489;DHT22;31236;55.026;61.042;2022-08-19T09:51:27;16.60;61.20
45489;DHT22;31236;55.026;61.042;2022-08-19T09:54:18;16.60;60.40
45489;DHT22;31236;55.026;61.042;2022-08-19T09:56:49;16.80;58.90
45489;DHT22;31236;55.026;61.042;2022-08-19T09:59:19;16.90;59.60
45489;DHT22;31236;55.026;61.042;2022-08-19T10:01:49;16.90;58.80
45489;DHT22;31236;55.026;61.042;2022-08-19T10:04:19;16.90;60.10
45489;DHT22;31236;55.026;61.042;2022-08-19T10:06:50;17.10;58.90
45489;DHT22;31236;55.026;61.042;2022-08-19T10:09:21;17.10;57.30
45489;DHT22;31236;55.026;61.042;2022-08-19T10:11:51;17.20;58.30
45489;DHT22;31236;55.026;61.042;2022-08-19T10:14:21;17.30;57.30
45489;DHT22;31236;55.026;61.042;2022-08-19T10:16:52;17.30;56.70
45489;DHT22;31236;55.026;61.042;2022-08-19T10:19:23;17.20;57.40
45489;DHT22;31236;55.026;61.042;2022-08-19T10:21:53;17.20;58.30
45489;DHT22;31236;55.026;61.042;2022-08-19T10:24:24;17.30;57.80
45489;DHT22;31236;55.026;61.042;2022-08-19T10:26:55;17.30;58.20
45489;DHT22;31236;55.026;61.042;2022-08-19T10:29:26;17.40;58.10
45489;DHT22;31236;55.026;61.042;2022-08-19T10:31:56;17.40;57.60
45489;DHT22;31236;55.026;61.042;2022-08-19T10:34:28;17.50;57.20
45489;DHT22;31236;55.026;61.042;2022-08-19T10:36:58;17.50;55.70
45489;DHT22;31236;55.026;61.042;2022-08-19T10:39:30;17.50;56.20
45489;DHT22;31236;55.026;61.042;2022-08-19T10:44:51;17.60;55.90
45489;DHT22;31236;55.026;61.042;2022-08-19T10:47:22;17.60;55.00
45489;DHT22;31236;55.026;61.042;2022-08-19T10:49:53;17.70;55.60
45489;DHT22;31236;55.026;61.042;2022-08-19T10:52:44;17.80;55.50
45489;DHT22;31236;55.026;61.042;2022-08-19T10:55:15;17.90;56.50
45489;DHT22;31236;55.026;61.042;2022-08-19T10:58:38;17.90;55.50
45489;DHT22;31236;55.026;61.042;2022-08-19T11:00:39;18.00;54.80
45489;DHT22;31236;55.026;61.042;2022-08-19T11:03:10;18.00;54.60
45489;DHT22;31236;55.026;61.042;2022-08-19T11:05:41;18.10;54.60
45489;DHT22;31236;55.026;61.042;2022-08-19T11:08:11;18.00;53.70
45489;DHT22;31236;55.026;61.042;2022-08-19T11:11:01;18.00;54.30
45489;DHT22;31236;55.026;61.042;2022-08-19T11:13:34;18.10;54.30
45489;DHT22;31236;55.026;61.042;2022-08-19T11:16:07;18.20;54.60
45489;DHT22;31236;55.026;61.042;2022-08-19T11:18:39;18.20;55.50
45489;DHT22;31236;55.026;61.042;2022-08-19T11:21:30;18.20;55.10
45489;DHT22;31236;55.026;61.042;2022-08-19T11:24:03;18.30;54.60
45489;DHT22;31236;55.026;61.042;2022-08-19T11:26:35;18.40;55.50
45489;DHT22;31236;55.026;61.042;2022-08-19T11:29:06;18.50;54.00
45489;DHT22;31236;55.026;61.042;2022-08-19T11:31:56;18.50;55.60
45489;DHT22;31236;55.026;61.042;2022-08-19T11:34:28;18.60;53.70
45489;DHT22;31236;55.026;61.042;2022-08-19T11:36:59;18.60;53.20
45489;DHT22;31236;55.026;61.042;2022-08-19T11:39:31;18.70;52.90
45489;DHT22;31236;55.026;61.042;2022-08-19T11:42:05;18.80;54.10
45489;DHT22;31236;55.026;61.042;2022-08-19T11:44:55;18.80;54.00
45489;DHT22;31236;55.026;61.042;2022-08-19T11:47:25;18.90;54.60
45489;DHT22;31236;55.026;61.042;2022-08-19T11:49:57;18.90;53.10
45489;DHT22;31236;55.026;61.042;2022-08-19T11:52:27;18.90;52.10
45489;DHT22;31236;55.026;61.042;2022-08-19T11:54:58;19.00;54.00
45489;DHT22;31236;55.026;61.042;2022-08-19T11:57:28;19.00;52.60
45489;DHT22;31236;55.026;61.042;2022-08-19T11:59:59;18.90;53.00
45489;DHT22;31236;55.026;61.042;2022-08-19T12:02:30;19.00;53.80
45489;DHT22;31236;55.026;61.042;2022-08-19T12:05:00;19.10;52.60
45489;DHT22;31236;55.026;61.042;2022-08-19T12:07:31;19.20;51.70
45489;DHT22;31236;55.026;61.042;2022-08-19T12:10:02;19.30;52.20
45489;DHT22;31236;55.026;61.042;2022-08-19T12:12:32;19.30;51.70
45489;DHT22;31236;55.026;61.042;2022-08-19T12:15:03;19.40;52.50
45489;DHT22;31236;55.026;61.042;2022-08-19T12:17:33;19.30;51.80
45489;DHT22;31236;55.026;61.042;2022-08-19T12:20:04;19.30;53.10
45489;DHT22;31236;55.026;61.042;2022-08-19T12:22:36;19.40;51.90
45489;DHT22;31236;55.026;61.042;2022-08-19T12:25:10;19.50;51.40
45489;DHT22;31236;55.026;61.042;2022-08-19T12:27:41;19.60;51.20
45489;DHT22;31236;55.026;61.042;2022-08-19T12:30:12;19.60;51.60
45489;DHT22;31236;55.026;61.042;2022-08-19T12:32:43;19.40;51.50
45489;DHT22;31236;55.026;61.042;2022-08-19T12:35:13;19.40;52.80
45489;DHT22;31236;55.026;61.042;2022-08-19T12:37:43;19.50;52.10
45489;DHT22;31236;55.026;61.042;2022-08-19T12:40:15;19.40;52.00
45489;DHT22;31236;55.026;61.042;2022-08-19T12:42:47;19.50;54.50
45489;DHT22;31236;55.026;61.042;2022-08-19T12:45:18;19.50;53.40
45489;DHT22;31236;55.026;61.042;2022-08-19T12:47:49;19.50;52.40
45489;DHT22;31236;55.026;61.042;2022-08-19T12:50:20;19.50;51.30
45489;DHT22;31236;55.026;61.042;2022-08-19T12:52:51;19.60;51.20
45489;DHT22;31236;55.026;61.042;2022-08-19T12:55:21;19.60;52.00
45489;DHT22;31236;55.026;61.042;2022-08-19T12:57:52;19.70;53.60
45489;DHT22;31236;55.026;61.042;2022-08-19T13:00:23;19.80;52.90
45489;DHT22;31236;55.026;61.042;2022-08-19T13:02:53;19.60;53.30
45489;DHT22;31236;55.026;61.042;2022-08-19T13:05:26;19.50;51.60
45489;DHT22;31236;55.026;61.042;2022-08-19T13:07:58;19.60;53.50
45489;DHT22;31236;55.026;61.042;2022-08-19T13:10:32;19.60;52.70
45489;DHT22;31236;55.026;61.042;2022-08-19T13:13:21;19.60;52.70
45489;DHT22;31236;55.026;61.042;2022-08-19T13:15:52;19.60;52.40
45489;DHT22;31236;55.026;61.042;2022-08-19T13:18:24;19.70;53.10
45489;DHT22;31236;55.026;61.042;2022-08-19T13:20:54;19.70;53.10
45489;DHT22;31236;55.026;61.042;2022-08-19T13:23:25;19.90;53.20
45489;DHT22;31236;55.026;61.042;2022-08-19T13:26:15;19.90;52.60
45489;DHT22;31236;55.026;61.042;2022-08-19T13:28:45;20.00;53.20
45489;DHT22;31236;55.026;61.042;2022-08-19T13:31:38;19.90;52.00
45489;DHT22;31236;55.026;61.042;2022-08-19T13:34:30;19.90;52.50
45489;DHT22;31236;55.026;61.042;2022-08-19T13:37:01;20.00;53.10
45489;DHT22;31236;55.026;61.042;2022-08-19T13:39:33;19.90;52.60
45489;DHT22;31236;55.026;61.042;2022-08-19T13:42:04;20.00;52.70
45489;DHT22;31236;55.026;61.042;2022-08-19T13:44:35;20.00;52.40
45489;DHT22;31236;55.026;61.042;2022-08-19T13:47:05;19.90;52.40
45489;DHT22;31236;55.026;61.042;2022-08-19T13:49:37;20.00;52.80
45489;DHT22;31236;55.026;61.042;2022-08-19T13:52:07;20.00;54.70
45489;DHT22;31236;55.026;61.042;2022-08-19T13:54:37;20.00;52.50
45489;DHT22;31236;55.026;61.042;2022-08-19T13:57:07;20.00;52.90
45489;DHT22;31236;55.026;61.042;2022-08-19T13:59:37;19.90;52.60
45489;DHT22;31236;55.026;61.042;2022-08-19T14:02:07;20.00;53.10
45489;DHT22;31236;55.026;61.042;2022-08-19T14:04:38;20.00;52.80
45489;DHT22;31236;55.026;61.042;2022-08-19T14:07:08;20.00;54.00
45489;DHT22;31236;55.026;61.042;2022-08-19T14:09:38;20.10;54.50
45489;DHT22;31236;55.026;61.042;2022-08-19T14:12:09;20.10;52.80
45489;DHT22;31236;55.026;61.042;2022-08-19T14:14:39;20.00;53.10
45489;DHT22;31236;55.026;61.042;2022-08-19T14:17:09;20.00;53.30
45489;DHT22;31236;55.026;61.042;2022-08-19T14:19:39;20.00;53.70
45489;DHT22;31236;55.026;61.042;2022-08-19T14:22:10;19.80;54.70
45489;DHT22;31236;55.026;61.042;2022-08-19T14:24:40;19.80;54.80
45489;DHT22;31236;55.026;61.042;2022-08-19T14:27:10;19.60;55.30
45489;DHT22;31236;55.026;61.042;2022-08-19T14:29:40;19.60;56.50
45489;DHT22;31236;55.026;61.042;2022-08-19T14:32:11;19.40;55.90
45489;DHT22;31236;55.026;61.042;2022-08-19T14:34:43;19.30;56.60
45489;DHT22;31236;55.026;61.042;2022-08-19T14:37:14;19.20;56.80
45489;DHT22;31236;55.026;61.042;2022-08-19T14:39:44;19.10;57.60
45489;DHT22;31236;55.026;61.042;2022-08-19T14:42:14;18.90;58.60
45489;DHT22;31236;55.026;61.042;2022-08-19T14:44:45;18.90;59.40
45489;DHT22;31236;55.026;61.042;2022-08-19T14:47:15;18.80;60.70
45489;DHT22;31236;55.026;61.042;2022-08-19T14:49:45;18.60;62.00
45489;DHT22;31236;55.026;61.042;2022-08-19T14:52:16;18.50;61.10
45489;DHT22;31236;55.026;61.042;2022-08-19T14:54:46;18.40;63.40
45489;DHT22;31236;55.026;61.042;2022-08-19T14:57:16;18.30;62.30
45489;DHT22;31236;55.026;61.042;2022-08-19T14:59:47;18.10;64.10
45489;DHT22;31236;55.026;61.042;2022-08-19T15:02:17;18.00;65.40
45489;DHT22;31236;55.026;61.042;2022-08-19T15:04:48;17.90;65.80
45489;DHT22;31236;55.026;61.042;2022-08-19T15:07:19;17.80;65.30
45489;DHT22;31236;55.026;61.042;2022-08-19T15:09:50;17.60;65.20
45489;DHT22;31236;55.026;61.042;2022-08-19T15:12:20;17.60;65.20
45489;DHT22;31236;55.026;61.042;2022-08-19T15:14:51;17.60;65.70
45489;DHT22;31236;55.026;61.042;2022-08-19T15:17:22;17.50;66.30
45489;DHT22;31236;55.026;61.042;2022-08-19T15:19:52;17.40;65.70
45489;DHT22;31236;55.026;61.042;2022-08-19T15:22:22;17.30;65.70
45489;DHT22;31236;55.026;61.042;2022-08-19T15:24:52;17.30;65.20
45489;DHT22;31236;55.026;61.042;2022-08-19T15:27:23;17.30;65.60
45489;DHT22;31236;55.026;61.042;2022-08-19T15:29:53;17.30;65.60
45489;DHT22;31236;55.026;61.042;2022-08-19T15:32:24;17.20;65.50
45489;DHT22;31236;55.026;61.042;2022-08-19T15:34:55;17.20;65.10
45489;DHT22;31236;55.026;61.042;2022-08-19T15:37:25;17.10;65.40
45489;DHT22;31236;55.026;61.042;2022-08-19T15:39:55;17.10;65.20
45489;DHT22;31236;55.026;61.042;2022-08-19T15:42:25;17.00;65.40
45489;DHT22;31236;55.026;61.042;2022-08-19T15:44:56;17.00;65.20
45489;DHT22;31236;55.026;61.042;2022-08-19T15:50:19;16.90;65.80
45489;DHT22;31236;55.026;61.042;2022-08-19T15:56:00;16.70;66.30
45489;DHT22;31236;55.026;61.042;2022-08-19T15:58:30;16.70;65.80
45489;DHT22;31236;55.026;61.042;2022-08-19T16:01:20;16.60;66.40
45489;DHT22;31236;55.026;61.042;2022-08-19T16:04:09;16.50;66.30
45489;DHT22;31236;55.026;61.042;2022-08-19T16:06:59;16.50;67.20
45489;DHT22;31236;55.026;61.042;2022-08-19T16:09:30;16.50;67.90
45489;DHT22;31236;55.026;61.042;2022-08-19T16:12:04;16.40;68.40
45489;DHT22;31236;55.026;61.042;2022-08-19T16:14:36;16.40;68.70
45489;DHT22;31236;55.026;61.042;2022-08-19T16:17:06;16.30;68.70
45489;DHT22;31236;55.026;61.042;2022-08-19T16:19:38;16.20;69.20
45489;DHT22;31236;55.026;61.042;2022-08-19T16:22:08;16.20;69.30
45489;DHT22;31236;55.026;61.042;2022-08-19T16:24:38;16.10;69.30
45489;DHT22;31236;55.026;61.042;2022-08-19T16:27:08;16.00;69.70
45489;DHT22;31236;55.026;61.042;2022-08-19T16:29:38;16.00;69.60
45489;DHT22;31236;55.026;61.042;2022-08-19T16:32:10;16.00;69.90